Sydenham, Canada
Current Conditions -  °F | °C
As of 12:00 PM on Saturday 20 Dec 2014 (Local Time) from CYVV Reporting Station
Broken Clouds Broken Clouds  
Wind Chill: 30°   Ceiling: 11000
Heat Index: 30°   Visibility: 15mi
Dew Point: 23°   Wind: 3mph
Humidity: 75%   Direction: 350°N
Pressure: 30.27"   Gusts: NA
Location:  44.57°N, 80.8°W
Report Text: CYVV 201700Z 35003KT 310V050 15SM FEW015 BKN110 BKN250 M01/M05 A3027 RMK CF1AC4CI2 SLP261
Loading
Personal Weather Stations






























Interactive Weather Map New forecast layout! Learn more

10-Day Weather Forecast

Advertisements
Track Severe Weather on mobile